sensor_id;sensor_type;location;lat;lon;timestamp;pressure;altitude;pressure_sealevel;temperature
65738;BMP280;52478;51.844;6.582;2024-02-14T00:01:14;101149.91;;;20.37
65738;BMP280;52478;51.844;6.582;2024-02-14T00:03:40;101152.16;;;20.39
65738;BMP280;52478;51.844;6.582;2024-02-14T00:06:08;101141.28;;;20.41
65738;BMP280;52478;51.844;6.582;2024-02-14T00:08:35;101145.09;;;20.43
65738;BMP280;52478;51.844;6.582;2024-02-14T00:11:03;101132.69;;;20.44
65738;BMP280;52478;51.844;6.582;2024-02-14T00:13:29;101130.91;;;20.47
65738;BMP280;52478;51.844;6.582;2024-02-14T00:15:59;101133.94;;;20.49
65738;BMP280;52478;51.844;6.582;2024-02-14T00:18:25;101118.28;;;20.51
65738;BMP280;52478;51.844;6.582;2024-02-14T00:20:52;101123.56;;;20.55
65738;BMP280;52478;51.844;6.582;2024-02-14T00:23:20;101127.34;;;20.57
65738;BMP280;52478;51.844;6.582;2024-02-14T00:25:47;101119.25;;;20.59
65738;BMP280;52478;51.844;6.582;2024-02-14T00:28:13;101125.78;;;20.62
65738;BMP280;52478;51.844;6.582;2024-02-14T00:30:39;101116.44;;;20.65
65738;BMP280;52478;51.844;6.582;2024-02-14T00:33:06;101130.63;;;20.67
65738;BMP280;52478;51.844;6.582;2024-02-14T00:35:32;101122.50;;;20.69
65738;BMP280;52478;51.844;6.582;2024-02-14T00:37:59;101107.59;;;20.72
65738;BMP280;52478;51.844;6.582;2024-02-14T00:40:27;101107.81;;;20.74
65738;BMP280;52478;51.844;6.582;2024-02-14T00:42:53;101110.09;;;20.75
65738;BMP280;52478;51.844;6.582;2024-02-14T00:45:20;101117.91;;;20.77
65738;BMP280;52478;51.844;6.582;2024-02-14T00:47:46;101118.41;;;20.81
65738;BMP280;52478;51.844;6.582;2024-02-14T00:50:13;101113.06;;;20.83
65738;BMP280;52478;51.844;6.582;2024-02-14T00:52:40;101110.50;;;20.85
65738;BMP280;52478;51.844;6.582;2024-02-14T00:55:07;101115.59;;;20.86
65738;BMP280;52478;51.844;6.582;2024-02-14T00:57:35;101103.94;;;20.88
65738;BMP280;52478;51.844;6.582;2024-02-14T01:00:02;101103.44;;;20.89
65738;BMP280;52478;51.844;6.582;2024-02-14T01:02:31;101089.75;;;20.91
65738;BMP280;52478;51.844;6.582;2024-02-14T01:04:57;101093.53;;;20.94
65738;BMP280;52478;51.844;6.582;2024-02-14T01:07:24;101081.66;;;20.93
65738;BMP280;52478;51.844;6.582;2024-02-14T01:09:50;101085.72;;;20.92
65738;BMP280;52478;51.844;6.582;2024-02-14T01:12:17;101080.16;;;20.92
65738;BMP280;52478;51.844;6.582;2024-02-14T01:14:44;101079.88;;;20.96
65738;BMP280;52478;51.844;6.582;2024-02-14T01:17:11;101074.53;;;20.98
65738;BMP280;52478;51.844;6.582;2024-02-14T01:19:38;101081.63;;;20.99
65738;BMP280;52478;51.844;6.582;2024-02-14T01:22:04;101077.81;;;21.02
65738;BMP280;52478;51.844;6.582;2024-02-14T01:24:33;101080.28;;;21.05
65738;BMP280;52478;51.844;6.582;2024-02-14T01:27:00;101063.09;;;21.07
65738;BMP280;52478;51.844;6.582;2024-02-14T01:29:28;101073.97;;;21.10
65738;BMP280;52478;51.844;6.582;2024-02-14T01:31:56;101077.00;;;21.12
65738;BMP280;52478;51.844;6.582;2024-02-14T01:34:22;101070.41;;;21.15
65738;BMP280;52478;51.844;6.582;2024-02-14T01:36:49;101068.59;;;21.18
65738;BMP280;52478;51.844;6.582;2024-02-14T01:39:15;101068.59;;;21.18
65738;BMP280;52478;51.844;6.582;2024-02-14T01:41:44;101070.13;;;21.19
65738;BMP280;52478;51.844;6.582;2024-02-14T01:44:13;101069.06;;;21.22
65738;BMP280;52478;51.844;6.582;2024-02-14T01:46:40;101060.19;;;21.23
65738;BMP280;52478;51.844;6.582;2024-02-14T01:49:08;101062.25;;;21.23
65738;BMP280;52478;51.844;6.582;2024-02-14T01:51:35;101060.97;;;21.23
65738;BMP280;52478;51.844;6.582;2024-02-14T01:54:02;101071.06;;;21.26
65738;BMP280;52478;51.844;6.582;2024-02-14T01:56:29;101058.66;;;21.27
65738;BMP280;52478;51.844;6.582;2024-02-14T01:58:56;101067.75;;;21.28
65738;BMP280;52478;51.844;6.582;2024-02-14T02:01:23;101060.41;;;21.30
65738;BMP280;52478;51.844;6.582;2024-02-14T02:03:50;101064.72;;;21.31
65738;BMP280;52478;51.844;6.582;2024-02-14T02:06:18;101053.84;;;21.28
65738;BMP280;52478;51.844;6.582;2024-02-14T02:08:44;101056.56;;;21.33
65738;BMP280;52478;51.844;6.582;2024-02-14T02:11:11;101060.88;;;21.34
65738;BMP280;52478;51.844;6.582;2024-02-14T02:13:39;101060.88;;;21.34
65738;BMP280;52478;51.844;6.582;2024-02-14T02:16:06;101056.84;;;21.35
65738;BMP280;52478;51.844;6.582;2024-02-14T02:18:33;101048.97;;;21.34
65738;BMP280;52478;51.844;6.582;2024-02-14T02:20:59;101054.53;;;21.39
65738;BMP280;52478;51.844;6.582;2024-02-14T02:23:33;101042.09;;;21.40
65738;BMP280;52478;51.844;6.582;2024-02-14T02:26:00;101056.25;;;21.42
65738;BMP280;52478;51.844;6.582;2024-02-14T02:28:26;101055.72;;;21.44
65738;BMP280;52478;51.844;6.582;2024-02-14T02:30:52;101048.13;;;21.44
65738;BMP280;52478;51.844;6.582;2024-02-14T02:33:21;101053.47;;;21.42
65738;BMP280;52478;51.844;6.582;2024-02-14T02:35:48;101045.69;;;21.35
65738;BMP280;52478;51.844;6.582;2024-02-14T02:38:15;101049.72;;;21.34
65738;BMP280;52478;51.844;6.582;2024-02-14T02:40:43;101044.69;;;21.33
65738;BMP280;52478;51.844;6.582;2024-02-14T02:43:09;101050.31;;;21.27
65738;BMP280;52478;51.844;6.582;2024-02-14T02:45:36;101048.31;;;21.23
65738;BMP280;52478;51.844;6.582;2024-02-14T02:48:03;101044.03;;;21.22
65738;BMP280;52478;51.844;6.582;2024-02-14T02:50:30;101028.84;;;21.17
65738;BMP280;52478;51.844;6.582;2024-02-14T02:52:56;101034.94;;;21.16
65738;BMP280;52478;51.844;6.582;2024-02-14T02:55:23;101037.97;;;21.18
65738;BMP280;52478;51.844;6.582;2024-02-14T02:57:50;101043.31;;;21.16
65738;BMP280;52478;51.844;6.582;2024-02-14T03:00:18;101049.91;;;21.13
65738;BMP280;52478;51.844;6.582;2024-02-14T03:02:46;101041.59;;;21.07
65738;BMP280;52478;51.844;6.582;2024-02-14T03:05:14;101037.53;;;21.08
65738;BMP280;52478;51.844;6.582;2024-02-14T03:07:44;101040.81;;;21.07
65738;BMP280;52478;51.844;6.582;2024-02-14T03:10:13;101040.16;;;20.95
65738;BMP280;52478;51.844;6.582;2024-02-14T03:12:39;101042.88;;;21.01
65738;BMP280;52478;51.844;6.582;2024-02-14T03:15:08;101040.91;;;20.96
65738;BMP280;52478;51.844;6.582;2024-02-14T03:17:36;101031.06;;;20.95
65738;BMP280;52478;51.844;6.582;2024-02-14T03:20:03;101030.78;;;20.93
65738;BMP280;52478;51.844;6.582;2024-02-14T03:22:32;101034.09;;;20.91
65738;BMP280;52478;51.844;6.582;2024-02-14T03:24:59;101028.06;;;20.87
65738;BMP280;52478;51.844;6.582;2024-02-14T03:27:25;101026.81;;;20.83
65738;BMP280;52478;51.844;6.582;2024-02-14T03:29:52;101041.75;;;20.80
65738;BMP280;52478;51.844;6.582;2024-02-14T03:32:21;101042.78;;;20.77
65738;BMP280;52478;51.844;6.582;2024-02-14T03:34:48;101033.97;;;20.73
65738;BMP280;52478;51.844;6.582;2024-02-14T03:37:15;101030.19;;;20.70
65738;BMP280;52478;51.844;6.582;2024-02-14T03:39:41;101033.25;;;20.67
65738;BMP280;52478;51.844;6.582;2024-02-14T03:42:08;101047.16;;;20.67
65738;BMP280;52478;51.844;6.582;2024-02-14T03:44:34;101034.50;;;20.66
65738;BMP280;52478;51.844;6.582;2024-02-14T03:47:03;101032.97;;;20.65
65738;BMP280;52478;51.844;6.582;2024-02-14T03:49:31;101037.06;;;20.64
65738;BMP280;52478;51.844;6.582;2024-02-14T03:51:57;101038.81;;;20.61
65738;BMP280;52478;51.844;6.582;2024-02-14T03:54:26;101042.34;;;20.62
65738;BMP280;52478;51.844;6.582;2024-02-14T03:56:53;101049.19;;;20.61
65738;BMP280;52478;51.844;6.582;2024-02-14T03:59:20;101030.75;;;20.58
65738;BMP280;52478;51.844;6.582;2024-02-14T04:01:49;101046.69;;;20.57
65738;BMP280;52478;51.844;6.582;2024-02-14T04:04:18;101057.31;;;20.59
65738;BMP280;52478;51.844;6.582;2024-02-14T04:06:46;101056.81;;;20.55
65738;BMP280;52478;51.844;6.582;2024-02-14T04:09:13;101058.34;;;20.56
65738;BMP280;52478;51.844;6.582;2024-02-14T04:11:39;101062.88;;;20.59
65738;BMP280;52478;51.844;6.582;2024-02-14T04:14:06;101056.53;;;20.58
65738;BMP280;52478;51.844;6.582;2024-02-14T04:16:32;101051.75;;;20.59
65738;BMP280;52478;51.844;6.582;2024-02-14T04:18:59;101054.75;;;20.61
65738;BMP280;52478;51.844;6.582;2024-02-14T04:21:25;101061.34;;;20.58
65738;BMP280;52478;51.844;6.582;2024-02-14T04:23:53;101061.34;;;20.58
65738;BMP280;52478;51.844;6.582;2024-02-14T04:26:19;101059.59;;;20.55
65738;BMP280;52478;51.844;6.582;2024-02-14T04:28:46;101069.22;;;20.54
65738;BMP280;52478;51.844;6.582;2024-02-14T04:31:13;101067.66;;;20.53
65738;BMP280;52478;51.844;6.582;2024-02-14T04:33:39;101067.44;;;20.51
65738;BMP280;52478;51.844;6.582;2024-02-14T04:36:06;101071.00;;;20.46
65738;BMP280;52478;51.844;6.582;2024-02-14T04:38:33;101079.59;;;20.48
65738;BMP280;52478;51.844;6.582;2024-02-14T04:41:01;101076.81;;;20.48
65738;BMP280;52478;51.844;6.582;2024-02-14T04:43:27;101063.97;;;20.39
65738;BMP280;52478;51.844;6.582;2024-02-14T04:45:54;101079.13;;;20.44
65738;BMP280;52478;51.844;6.582;2024-02-14T04:48:20;101081.63;;;20.42
65738;BMP280;52478;51.844;6.582;2024-02-14T04:50:47;101073.28;;;20.42
65738;BMP280;52478;51.844;6.582;2024-02-14T04:53:14;101084.69;;;20.44
65738;BMP280;52478;51.844;6.582;2024-02-14T04:55:41;101072.03;;;20.43
65738;BMP280;52478;51.844;6.582;2024-02-14T04:58:10;101085.19;;;20.42
65738;BMP280;52478;51.844;6.582;2024-02-14T05:00:36;101083.41;;;20.39
65738;BMP280;52478;51.844;6.582;2024-02-14T05:03:04;101091.00;;;20.39
65738;BMP280;52478;51.844;6.582;2024-02-14T05:05:31;101094.31;;;20.37
65738;BMP280;52478;51.844;6.582;2024-02-14T05:07:58;101086.69;;;20.38
65738;BMP280;52478;51.844;6.582;2024-02-14T05:10:25;101102.63;;;20.37
65738;BMP280;52478;51.844;6.582;2024-02-14T05:12:51;101091.78;;;20.39
65738;BMP280;52478;51.844;6.582;2024-02-14T05:15:19;101097.06;;;20.37
65738;BMP280;52478;51.844;6.582;2024-02-14T05:17:46;101107.16;;;20.40
65738;BMP280;52478;51.844;6.582;2024-02-14T05:20:15;101108.69;;;20.36
65738;BMP280;52478;51.844;6.582;2024-02-14T05:22:41;101105.66;;;20.34
65738;BMP280;52478;51.844;6.582;2024-02-14T05:25:08;101117.78;;;20.36
65738;BMP280;52478;51.844;6.582;2024-02-14T05:27:35;101116.78;;;20.34
65738;BMP280;52478;51.844;6.582;2024-02-14T05:30:03;101118.34;;;20.35
65738;BMP280;52478;51.844;6.582;2024-02-14T05:32:32;101128.69;;;20.34
65738;BMP280;52478;51.844;6.582;2024-02-14T05:34:58;101112.50;;;20.33
65738;BMP280;52478;51.844;6.582;2024-02-14T05:37:25;101120.34;;;20.34
65738;BMP280;52478;51.844;6.582;2024-02-14T05:39:52;101123.91;;;20.35
65738;BMP280;52478;51.844;6.582;2024-02-14T05:42:19;101122.09;;;20.32
65738;BMP280;52478;51.844;6.582;2024-02-14T05:44:46;101113.75;;;20.32
65738;BMP280;52478;51.844;6.582;2024-02-14T05:47:13;101121.13;;;20.35
65738;BMP280;52478;51.844;6.582;2024-02-14T05:49:41;101118.06;;;20.33
65738;BMP280;52478;51.844;6.582;2024-02-14T05:52:07;101125.13;;;20.34
65738;BMP280;52478;51.844;6.582;2024-02-14T05:54:34;101123.91;;;20.35
65738;BMP280;52478;51.844;6.582;2024-02-14T05:57:01;101126.41;;;20.33
65738;BMP280;52478;51.844;6.582;2024-02-14T05:59:28;101133.72;;;20.36
65738;BMP280;52478;51.844;6.582;2024-02-14T06:01:55;101131.69;;;20.36
65738;BMP280;52478;51.844;6.582;2024-02-14T06:04:22;101139.78;;;20.40
65738;BMP280;52478;51.844;6.582;2024-02-14T06:06:50;101137.53;;;20.44
65738;BMP280;52478;51.844;6.582;2024-02-14T06:09:17;101139.25;;;20.47
65738;BMP280;52478;51.844;6.582;2024-02-14T06:11:43;101136.72;;;20.49
65738;BMP280;52478;51.844;6.582;2024-02-14T06:14:10;101149.63;;;20.52
65738;BMP280;52478;51.844;6.582;2024-02-14T06:16:36;101148.31;;;20.53
65738;BMP280;52478;51.844;6.582;2024-02-14T06:19:03;101139.97;;;20.53
65738;BMP280;52478;51.844;6.582;2024-02-14T06:21:31;101138.75;;;20.54
65738;BMP280;52478;51.844;6.582;2024-02-14T06:23:59;101142.50;;;20.56
65738;BMP280;52478;51.844;6.582;2024-02-14T06:26:26;101142.50;;;20.56
65738;BMP280;52478;51.844;6.582;2024-02-14T06:28:52;101159.94;;;20.57
65738;BMP280;52478;51.844;6.582;2024-02-14T06:31:19;101162.72;;;20.57
65738;BMP280;52478;51.844;6.582;2024-02-14T06:33:46;101164.25;;;20.58
65738;BMP280;52478;51.844;6.582;2024-02-14T06:36:12;101164.75;;;20.56
65738;BMP280;52478;51.844;6.582;2024-02-14T06:38:39;101168.06;;;20.55
65738;BMP280;52478;51.844;6.582;2024-02-14T06:41:07;101166.56;;;20.54
65738;BMP280;52478;51.844;6.582;2024-02-14T06:43:33;101163.53;;;20.52
65738;BMP280;52478;51.844;6.582;2024-02-14T06:46:01;101172.13;;;20.54
65738;BMP280;52478;51.844;6.582;2024-02-14T06:48:27;101176.41;;;20.55
65738;BMP280;52478;51.844;6.582;2024-02-14T06:50:54;101169.81;;;20.58
65738;BMP280;52478;51.844;6.582;2024-02-14T06:53:20;101174.13;;;20.59
65738;BMP280;52478;51.844;6.582;2024-02-14T06:55:47;101174.13;;;20.59
65738;BMP280;52478;51.844;6.582;2024-02-14T06:58:15;101183.22;;;20.59
65738;BMP280;52478;51.844;6.582;2024-02-14T07:00:41;101188.25;;;20.61
65738;BMP280;52478;51.844;6.582;2024-02-14T07:03:08;101187.00;;;20.62
65738;BMP280;52478;51.844;6.582;2024-02-14T07:05:34;101190.06;;;20.64
65738;BMP280;52478;51.844;6.582;2024-02-14T07:08:00;101193.06;;;20.66
65738;BMP280;52478;51.844;6.582;2024-02-14T07:10:27;101191.81;;;20.67
65738;BMP280;52478;51.844;6.582;2024-02-14T07:12:54;101192.56;;;20.67
65738;BMP280;52478;51.844;6.582;2024-02-14T07:15:22;101191.28;;;20.68
65738;BMP280;52478;51.844;6.582;2024-02-14T07:17:51;101196.34;;;20.70
65738;BMP280;52478;51.844;6.582;2024-02-14T07:20:18;101196.34;;;20.70
65738;BMP280;52478;51.844;6.582;2024-02-14T07:22:45;101197.84;;;20.71
65738;BMP280;52478;51.844;6.582;2024-02-14T07:25:12;101198.63;;;20.71
65738;BMP280;52478;51.844;6.582;2024-02-14T07:27:39;101204.94;;;20.72
65738;BMP280;52478;51.844;6.582;2024-02-14T07:30:07;101204.94;;;20.72
65738;BMP280;52478;51.844;6.582;2024-02-14T07:32:36;101192.53;;;20.73
65738;BMP280;52478;51.844;6.582;2024-02-14T07:35:04;101198.09;;;20.73
65738;BMP280;52478;51.844;6.582;2024-02-14T07:37:31;101192.78;;;20.75
65738;BMP280;52478;51.844;6.582;2024-02-14T07:39:57;101199.63;;;20.74
65738;BMP280;52478;51.844;6.582;2024-02-14T07:42:24;101205.44;;;20.76
65738;BMP280;52478;51.844;6.582;2024-02-14T07:44:50;101201.91;;;20.75
65738;BMP280;52478;51.844;6.582;2024-02-14T07:47:16;101205.44;;;20.76
65738;BMP280;52478;51.844;6.582;2024-02-14T07:49:45;101195.81;;;20.77
65738;BMP280;52478;51.844;6.582;2024-02-14T07:52:12;101201.38;;;20.77
65738;BMP280;52478;51.844;6.582;2024-02-14T07:54:38;101202.88;;;20.78
65738;BMP280;52478;51.844;6.582;2024-02-14T07:57:05;101215.53;;;20.79
65738;BMP280;52478;51.844;6.582;2024-02-14T07:59:31;101214.25;;;20.80
65738;BMP280;52478;51.844;6.582;2024-02-14T08:01:58;101217.06;;;20.80
65738;BMP280;52478;51.844;6.582;2024-02-14T08:04:25;101206.69;;;20.80
65738;BMP280;52478;51.844;6.582;2024-02-14T08:06:52;101213.00;;;20.81
65738;BMP280;52478;51.844;6.582;2024-02-14T08:09:19;101218.56;;;20.81
65738;BMP280;52478;51.844;6.582;2024-02-14T08:11:45;101217.81;;;20.80
65738;BMP280;52478;51.844;6.582;2024-02-14T08:14:12;101224.13;;;20.81
65738;BMP280;52478;51.844;6.582;2024-02-14T08:16:39;101226.41;;;20.82
65738;BMP280;52478;51.844;6.582;2024-02-14T08:19:05;101223.59;;;20.82
65738;BMP280;52478;51.844;6.582;2024-02-14T08:21:32;101221.59;;;20.83
65738;BMP280;52478;51.844;6.582;2024-02-14T08:23:59;101216.03;;;20.83
65738;BMP280;52478;51.844;6.582;2024-02-14T08:26:26;101229.44;;;20.84
65738;BMP280;52478;51.844;6.582;2024-02-14T08:28:53;101229.44;;;20.84
65738;BMP280;52478;51.844;6.582;2024-02-14T08:31:20;101235.72;;;20.85
65738;BMP280;52478;51.844;6.582;2024-02-14T08:33:46;101235.72;;;20.85
65738;BMP280;52478;51.844;6.582;2024-02-14T08:36:13;101241.28;;;20.85
65738;BMP280;52478;51.844;6.582;2024-02-14T08:38:42;101241.28;;;20.85
65738;BMP280;52478;51.844;6.582;2024-02-14T08:41:09;101238.50;;;20.85
65738;BMP280;52478;51.844;6.582;2024-02-14T08:43:36;101238.50;;;20.85
65738;BMP280;52478;51.844;6.582;2024-02-14T08:46:03;101241.28;;;20.85
65738;BMP280;52478;51.844;6.582;2024-02-14T08:48:29;101235.72;;;20.85
65738;BMP280;52478;51.844;6.582;2024-02-14T08:50:59;101239.81;;;20.84
65738;BMP280;52478;51.844;6.582;2024-02-14T08:53:26;101245.38;;;20.84
65738;BMP280;52478;51.844;6.582;2024-02-14T08:55:52;101243.09;;;20.82
65738;BMP280;52478;51.844;6.582;2024-02-14T08:58:20;101247.13;;;20.81
65738;BMP280;52478;51.844;6.582;2024-02-14T09:00:48;101255.25;;;20.79
65738;BMP280;52478;51.844;6.582;2024-02-14T09:03:14;101252.69;;;20.81
65738;BMP280;52478;51.844;6.582;2024-02-14T09:05:40;101270.16;;;20.82
65738;BMP280;52478;51.844;6.582;2024-02-14T09:08:08;101257.28;;;20.84
65738;BMP280;52478;51.844;6.582;2024-02-14T09:10:34;101258.00;;;20.85
65738;BMP280;52478;51.844;6.582;2024-02-14T09:13:00;101260.06;;;20.84
65738;BMP280;52478;51.844;6.582;2024-02-14T09:15:28;101255.00;;;20.83
65738;BMP280;52478;51.844;6.582;2024-02-14T09:17:56;101263.34;;;20.83
65738;BMP280;52478;51.844;6.582;2024-02-14T09:20:23;101263.34;;;20.83
65738;BMP280;52478;51.844;6.582;2024-02-14T09:22:49;101264.59;;;20.82
65738;BMP280;52478;51.844;6.582;2024-02-14T09:25:16;101267.38;;;20.82
65738;BMP280;52478;51.844;6.582;2024-02-14T09:27:42;101270.91;;;20.82
65738;BMP280;52478;51.844;6.582;2024-02-14T09:30:10;101265.63;;;20.79
65738;BMP280;52478;51.844;6.582;2024-02-14T09:32:38;101266.13;;;20.83
65738;BMP280;52478;51.844;6.582;2024-02-14T09:35:05;101270.16;;;20.82
65738;BMP280;52478;51.844;6.582;2024-02-14T09:37:32;101257.00;;;20.82
65738;BMP280;52478;51.844;6.582;2024-02-14T09:39:59;101262.34;;;20.80
65738;BMP280;52478;51.844;6.582;2024-02-14T09:42:30;101270.16;;;20.82
65738;BMP280;52478;51.844;6.582;2024-02-14T09:44:59;101275.72;;;20.82
65738;BMP280;52478;51.844;6.582;2024-02-14T09:47:27;101282.56;;;20.81
65738;BMP280;52478;51.844;6.582;2024-02-14T09:49:57;101281.31;;;20.82
65738;BMP280;52478;51.844;6.582;2024-02-14T09:52:25;101291.16;;;20.83
65738;BMP280;52478;51.844;6.582;2024-02-14T09:54:52;101283.31;;;20.81
65738;BMP280;52478;51.844;6.582;2024-02-14T09:57:19;101295.22;;;20.82
65738;BMP280;52478;51.844;6.582;2024-02-14T09:59:48;101289.66;;;20.82
65738;BMP280;52478;51.844;6.582;2024-02-14T10:02:15;101291.66;;;20.81
65738;BMP280;52478;51.844;6.582;2024-02-14T10:04:43;101281.31;;;20.82
65738;BMP280;52478;51.844;6.582;2024-02-14T10:07:10;101279.78;;;20.81
65738;BMP280;52478;51.844;6.582;2024-02-14T10:09:40;101288.13;;;20.81
65738;BMP280;52478;51.844;6.582;2024-02-14T10:12:07;101287.59;;;20.82
65738;BMP280;52478;51.844;6.582;2024-02-14T10:14:34;101288.38;;;20.83
65738;BMP280;52478;51.844;6.582;2024-02-14T10:17:01;101289.66;;;20.82
65738;BMP280;52478;51.844;6.582;2024-02-14T10:19:28;101287.59;;;20.82
65738;BMP280;52478;51.844;6.582;2024-02-14T10:21:55;101305.06;;;20.83
65738;BMP280;52478;51.844;6.582;2024-02-14T10:24:25;101292.44;;;20.82
65738;BMP280;52478;51.844;6.582;2024-02-14T10:26:51;101305.06;;;20.83
65738;BMP280;52478;51.844;6.582;2024-02-14T10:29:19;101299.50;;;20.83
65738;BMP280;52478;51.844;6.582;2024-02-14T10:31:46;101309.13;;;20.82
65738;BMP280;52478;51.844;6.582;2024-02-14T10:34:12;101310.66;;;20.83
65738;BMP280;52478;51.844;6.582;2024-02-14T10:36:41;101316.22;;;20.83
65738;BMP280;52478;51.844;6.582;2024-02-14T10:39:09;101311.41;;;20.83
65738;BMP280;52478;51.844;6.582;2024-02-14T10:41:37;101310.66;;;20.83
65738;BMP280;52478;51.844;6.582;2024-02-14T10:44:04;101310.66;;;20.83
65738;BMP280;52478;51.844;6.582;2024-02-14T10:46:32;101310.66;;;20.83
65738;BMP280;52478;51.844;6.582;2024-02-14T10:49:03;101308.34;;;20.81
65738;BMP280;52478;51.844;6.582;2024-02-14T10:51:31;101310.66;;;20.83
65738;BMP280;52478;51.844;6.582;2024-02-14T10:53:58;101306.59;;;20.84
65738;BMP280;52478;51.844;6.582;2024-02-14T10:56:28;101315.72;;;20.84
65738;BMP280;52478;51.844;6.582;2024-02-14T10:58:56;101308.63;;;20.83
65738;BMP280;52478;51.844;6.582;2024-02-14T11:01:24;101312.16;;;20.84
65738;BMP280;52478;51.844;6.582;2024-02-14T11:03:52;101327.34;;;20.83
65738;BMP280;52478;51.844;6.582;2024-02-14T11:06:21;101318.50;;;20.84
65738;BMP280;52478;51.844;6.582;2024-02-14T11:08:57;101312.16;;;20.84
65738;BMP280;52478;51.844;6.582;2024-02-14T11:11:28;101310.88;;;20.85
65738;BMP280;52478;51.844;6.582;2024-02-14T11:13:57;101310.88;;;20.85
65738;BMP280;52478;51.844;6.582;2024-02-14T11:16:25;101310.88;;;20.85
65738;BMP280;52478;51.844;6.582;2024-02-14T11:18:53;101308.84;;;20.85
65738;BMP280;52478;51.844;6.582;2024-02-14T11:21:28;101308.34;;;20.87
65738;BMP280;52478;51.844;6.582;2024-02-14T11:23:55;101312.41;;;20.86
65738;BMP280;52478;51.844;6.582;2024-02-14T11:26:24;101315.19;;;20.86
65738;BMP280;52478;51.844;6.582;2024-02-14T11:29:00;101315.19;;;20.86
65738;BMP280;52478;51.844;6.582;2024-02-14T11:31:32;101313.94;;;20.87
65738;BMP280;52478;51.844;6.582;2024-02-14T11:34:03;101319.50;;;20.87
65738;BMP280;52478;51.844;6.582;2024-02-14T11:36:31;101318.22;;;20.88
65738;BMP280;52478;51.844;6.582;2024-02-14T11:38:58;101313.44;;;20.88
65738;BMP280;52478;51.844;6.582;2024-02-14T11:41:27;101308.59;;;20.89
65738;BMP280;52478;51.844;6.582;2024-02-14T11:43:53;101304.56;;;20.90
65738;BMP280;52478;51.844;6.582;2024-02-14T11:46:21;101303.78;;;20.89
65738;BMP280;52478;51.844;6.582;2024-02-14T11:48:48;101309.34;;;20.89
65738;BMP280;52478;51.844;6.582;2024-02-14T11:51:15;101304.56;;;20.90
65738;BMP280;52478;51.844;6.582;2024-02-14T11:53:41;101303.03;;;20.89
65738;BMP280;52478;51.844;6.582;2024-02-14T11:56:08;101293.44;;;20.90
65738;BMP280;52478;51.844;6.582;2024-02-14T11:58:34;101287.88;;;20.90
65738;BMP280;52478;51.844;6.582;2024-02-14T12:01:03;101287.88;;;20.90
65738;BMP280;52478;51.844;6.582;2024-02-14T12:03:32;101283.03;;;20.90
65738;BMP280;52478;51.844;6.582;2024-02-14T12:06:00;101284.56;;;20.91
65738;BMP280;52478;51.844;6.582;2024-02-14T12:08:28;101292.91;;;20.91
65738;BMP280;52478;51.844;6.582;2024-02-14T12:10:55;101294.19;;;20.90
65738;BMP280;52478;51.844;6.582;2024-02-14T12:13:21;101293.69;;;20.92
65738;BMP280;52478;51.844;6.582;2024-02-14T12:15:49;101302.03;;;20.92
65738;BMP280;52478;51.844;6.582;2024-02-14T12:18:16;101285.34;;;20.92
65738;BMP280;52478;51.844;6.582;2024-02-14T12:20:45;101276.97;;;20.92
65738;BMP280;52478;51.844;6.582;2024-02-14T12:23:14;101272.69;;;20.91
65738;BMP280;52478;51.844;6.582;2024-02-14T12:25:42;101279.75;;;20.92
65738;BMP280;52478;51.844;6.582;2024-02-14T12:28:13;101283.81;;;20.91
65738;BMP280;52478;51.844;6.582;2024-02-14T12:30:44;101290.91;;;20.92
65738;BMP280;52478;51.844;6.582;2024-02-14T12:33:11;101292.91;;;20.91
65738;BMP280;52478;51.844;6.582;2024-02-14T12:35:41;101295.69;;;20.91
65738;BMP280;52478;51.844;6.582;2024-02-14T12:38:11;101288.13;;;20.92
65738;BMP280;52478;51.844;6.582;2024-02-14T12:40:38;101288.13;;;20.92
65738;BMP280;52478;51.844;6.582;2024-02-14T12:43:07;101284.56;;;20.91
65738;BMP280;52478;51.844;6.582;2024-02-14T12:45:33;101289.59;;;20.93
65738;BMP280;52478;51.844;6.582;2024-02-14T12:48:00;101287.59;;;20.93
65738;BMP280;52478;51.844;6.582;2024-02-14T12:50:27;101286.09;;;20.92
65738;BMP280;52478;51.844;6.582;2024-02-14T12:52:53;101291.66;;;20.92
65738;BMP280;52478;51.844;6.582;2024-02-14T12:55:22;101286.81;;;20.93
65738;BMP280;52478;51.844;6.582;2024-02-14T12:57:51;101286.09;;;20.92
65738;BMP280;52478;51.844;6.582;2024-02-14T13:00:18;101290.38;;;20.93
65738;BMP280;52478;51.844;6.582;2024-02-14T13:02:44;101281.25;;;20.93
65738;BMP280;52478;51.844;6.582;2024-02-14T13:05:11;101280.53;;;20.92
65738;BMP280;52478;51.844;6.582;2024-02-14T13:07:38;101284.03;;;20.93
65738;BMP280;52478;51.844;6.582;2024-02-14T13:10:05;101281.25;;;20.93
65738;BMP280;52478;51.844;6.582;2024-02-14T13:12:34;101282.03;;;20.93
65738;BMP280;52478;51.844;6.582;2024-02-14T13:15:01;101280.00;;;20.94
65738;BMP280;52478;51.844;6.582;2024-02-14T13:17:28;101277.19;;;20.94
65738;BMP280;52478;51.844;6.582;2024-02-14T13:19:54;101277.19;;;20.94
65738;BMP280;52478;51.844;6.582;2024-02-14T13:22:22;101273.94;;;20.95
65738;BMP280;52478;51.844;6.582;2024-02-14T13:24:48;101266.06;;;20.94
65738;BMP280;52478;51.844;6.582;2024-02-14T13:27:15;101264.06;;;20.94
65738;BMP280;52478;51.844;6.582;2024-02-14T13:29:43;101262.06;;;20.95
65738;BMP280;52478;51.844;6.582;2024-02-14T13:32:10;101260.78;;;20.96
65738;BMP280;52478;51.844;6.582;2024-02-14T13:34:36;101268.38;;;20.95
65738;BMP280;52478;51.844;6.582;2024-02-14T13:37:03;101261.53;;;20.96
65738;BMP280;52478;51.844;6.582;2024-02-14T13:39:30;101267.84;;;20.97
65738;BMP280;52478;51.844;6.582;2024-02-14T13:41:57;101266.34;;;20.96
65738;BMP280;52478;51.844;6.582;2024-02-14T13:44:25;101265.06;;;20.97
65738;BMP280;52478;51.844;6.582;2024-02-14T13:46:53;101266.56;;;20.98
65738;BMP280;52478;51.844;6.582;2024-02-14T13:49:20;101267.34;;;20.98
65738;BMP280;52478;51.844;6.582;2024-02-14T13:51:47;101263.78;;;20.98
65738;BMP280;52478;51.844;6.582;2024-02-14T13:54:15;101262.56;;;20.99
65738;BMP280;52478;51.844;6.582;2024-02-14T13:56:41;101267.34;;;20.98